createdAt,value
2022-08-25T00:00:30.765Z,27.08
2022-08-25T00:01:31.734Z,27.07
2022-08-25T00:02:31.143Z,27.07
2022-08-25T00:03:35.860Z,27.05
2022-08-25T00:04:33.760Z,27.03
2022-08-25T00:05:32.406Z,27.02
2022-08-25T00:06:31.778Z,27.03
2022-08-25T00:07:31.958Z,27.02
2022-08-25T00:08:32.129Z,27.00
2022-08-25T00:09:32.290Z,27.00
2022-08-25T00:10:32.454Z,27.02
2022-08-25T00:11:32.611Z,26.97
2022-08-25T00:12:32.780Z,26.94
2022-08-25T00:13:32.942Z,26.95
2022-08-25T00:14:33.102Z,26.94
2022-08-25T00:15:33.284Z,26.95
2022-08-25T00:16:33.432Z,26.95
2022-08-25T00:17:33.607Z,26.92
2022-08-25T00:18:33.782Z,26.92
2022-08-25T00:19:33.944Z,26.88
2022-08-25T00:20:34.106Z,26.89
2022-08-25T00:21:34.265Z,26.89
2022-08-25T00:22:34.466Z,26.87
2022-08-25T00:23:34.623Z,26.88
2022-08-25T00:24:34.815Z,26.91
2022-08-25T00:25:34.978Z,26.89
2022-08-25T00:26:35.136Z,26.83
2022-08-25T00:27:35.316Z,26.87
2022-08-25T00:28:35.496Z,26.83
2022-08-25T00:29:35.650Z,26.85
2022-08-25T00:30:35.845Z,26.82
2022-08-25T00:31:38.647Z,26.83
2022-08-25T00:32:36.231Z,26.82
2022-08-25T00:33:36.357Z,26.82
2022-08-25T00:34:36.521Z,26.79
2022-08-25T00:35:36.682Z,26.80
2022-08-25T00:36:36.850Z,26.79
2022-08-25T00:37:37.032Z,26.79
2022-08-25T00:38:37.167Z,26.74
2022-08-25T00:39:37.323Z,26.74
2022-08-25T00:40:37.512Z,26.76
2022-08-25T00:41:37.673Z,26.74
2022-08-25T00:42:37.865Z,26.73
2022-08-25T00:43:38.033Z,26.73
2022-08-25T00:44:38.192Z,26.70
2022-08-25T00:45:38.352Z,26.73
2022-08-25T00:46:38.593Z,26.69
2022-08-25T00:47:38.755Z,26.70
2022-08-25T00:48:38.890Z,26.69
2022-08-25T00:49:39.037Z,26.69
2022-08-25T00:50:39.235Z,26.67
2022-08-25T00:51:39.406Z,26.64
2022-08-25T00:52:39.636Z,26.65
2022-08-25T00:53:39.766Z,26.69
2022-08-25T00:54:39.928Z,26.64
2022-08-25T00:55:40.082Z,26.65
2022-08-25T00:56:40.271Z,26.62
2022-08-25T00:57:40.458Z,26.62
2022-08-25T00:58:40.589Z,26.61
2022-08-25T00:59:40.751Z,26.61
2022-08-25T01:00:40.904Z,26.61
2022-08-25T01:01:41.183Z,26.61
2022-08-25T01:02:41.313Z,26.57
2022-08-25T01:03:41.471Z,26.60
2022-08-25T01:04:45.854Z,26.57
2022-08-25T01:05:42.812Z,26.60
2022-08-25T01:06:41.999Z,26.52
2022-08-25T01:07:42.162Z,26.58
2022-08-25T01:08:42.311Z,26.57
2022-08-25T01:09:42.464Z,26.52
2022-08-25T01:10:42.622Z,26.51
2022-08-25T01:11:42.778Z,26.51
2022-08-25T01:12:42.982Z,26.50
2022-08-25T01:13:43.153Z,26.50
2022-08-25T01:14:43.314Z,26.51
2022-08-25T01:15:43.509Z,26.48
2022-08-25T01:16:43.651Z,26.48
2022-08-25T01:17:43.812Z,26.46
2022-08-25T01:18:43.987Z,26.46
2022-08-25T01:19:44.145Z,26.43
2022-08-25T01:20:44.326Z,26.43
2022-08-25T01:21:44.479Z,26.45
2022-08-25T01:22:44.647Z,26.43
2022-08-25T01:23:44.827Z,26.43
2022-08-25T01:24:44.987Z,26.42
2022-08-25T01:25:45.148Z,26.40
2022-08-25T01:26:45.308Z,26.42
2022-08-25T01:27:45.460Z,26.40
2022-08-25T01:28:45.639Z,26.40
2022-08-25T01:29:45.820Z,26.36
2022-08-25T01:30:46.026Z,26.38
2022-08-25T01:31:46.151Z,26.38
2022-08-25T01:32:46.342Z,26.33
2022-08-25T01:33:46.523Z,26.36
2022-08-25T01:34:46.683Z,26.32
2022-08-25T01:35:46.845Z,26.30
2022-08-25T01:36:47.002Z,26.33
2022-08-25T01:37:47.164Z,26.35
2022-08-25T01:38:47.343Z,26.30
2022-08-25T01:39:47.552Z,26.30
2022-08-25T01:40:47.671Z,26.28
2022-08-25T01:41:47.827Z,26.30
2022-08-25T01:42:48.015Z,26.25
2022-08-25T01:43:48.185Z,26.27
2022-08-25T01:44:48.353Z,26.30
2022-08-25T01:45:48.587Z,26.27
2022-08-25T01:46:48.678Z,26.25
2022-08-25T01:47:48.837Z,26.24
2022-08-25T01:48:49.027Z,26.21
2022-08-25T01:49:49.147Z,26.21
2022-08-25T01:50:49.345Z,26.21
2022-08-25T01:51:49.534Z,26.23
2022-08-25T01:52:49.693Z,26.21
2022-08-25T01:53:49.878Z,26.20
2022-08-25T01:54:50.044Z,26.20
2022-08-25T01:55:50.200Z,26.18
2022-08-25T01:56:50.391Z,26.17
2022-08-25T01:57:50.552Z,26.15
2022-08-25T01:58:50.783Z,26.15
2022-08-25T01:59:50.908Z,26.18
2022-08-25T02:00:51.071Z,26.17
2022-08-25T02:01:51.305Z,26.14
2022-08-25T02:02:55.518Z,26.15
2022-08-25T02:03:51.621Z,26.13
2022-08-25T02:04:51.745Z,26.15
2022-08-25T02:05:51.905Z,26.14
2022-08-25T02:06:52.064Z,26.13
2022-08-25T02:07:52.226Z,26.14
2022-08-25T02:08:52.425Z,26.11
2022-08-25T02:09:52.585Z,26.08
2022-08-25T02:10:52.786Z,26.13
2022-08-25T02:11:52.946Z,26.13
2022-08-25T02:12:54.477Z,26.08
2022-08-25T02:13:53.266Z,26.06
2022-08-25T02:14:53.440Z,26.06
2022-08-25T02:15:53.587Z,26.06
2022-08-25T02:16:53.847Z,26.06
2022-08-25T02:17:53.945Z,26.08
2022-08-25T02:18:54.102Z,26.06
2022-08-25T02:19:54.260Z,26.03
2022-08-25T02:20:54.420Z,26.05
2022-08-25T02:21:54.627Z,26.03
2022-08-25T02:22:56.845Z,26.05
2022-08-25T02:23:54.916Z,26.03
2022-08-25T02:24:55.111Z,26.02
2022-08-25T02:25:55.262Z,26.01
2022-08-25T02:26:55.462Z,25.99
2022-08-25T02:27:55.623Z,26.01
2022-08-25T02:28:55.788Z,26.01
2022-08-25T02:29:55.958Z,26.01
2022-08-25T02:30:58.677Z,26.01
2022-08-25T02:31:57.299Z,25.98
2022-08-25T02:32:56.475Z,25.99
2022-08-25T02:33:56.632Z,25.98
2022-08-25T02:34:56.788Z,25.96
2022-08-25T02:35:56.950Z,25.96
2022-08-25T02:36:57.127Z,25.96
2022-08-25T02:37:57.288Z,25.95
2022-08-25T02:38:57.447Z,25.96
2022-08-25T02:39:57.634Z,25.93
2022-08-25T02:40:57.797Z,25.93
2022-08-25T02:41:57.968Z,25.95
2022-08-25T02:42:58.133Z,25.93
2022-08-25T02:43:58.287Z,25.93
2022-08-25T02:44:58.445Z,25.93
2022-08-25T02:45:58.647Z,25.90
2022-08-25T02:46:58.805Z,25.91
2022-08-25T02:47:58.970Z,25.90
2022-08-25T02:48:59.124Z,25.87
2022-08-25T02:49:59.280Z,25.91
2022-08-25T02:50:59.452Z,25.90
2022-08-25T02:51:59.612Z,25.87
2022-08-25T02:52:59.783Z,25.87
2022-08-25T02:53:59.944Z,25.84
2022-08-25T02:55:00.166Z,25.86
2022-08-25T02:56:00.284Z,25.84
2022-08-25T02:57:00.444Z,25.87
2022-08-25T02:58:00.601Z,25.84
2022-08-25T02:59:00.798Z,25.86
2022-08-25T03:00:00.979Z,25.84
2022-08-25T03:01:01.178Z,25.84
2022-08-25T03:02:01.307Z,25.80
2022-08-25T03:03:01.499Z,25.78
2022-08-25T03:04:01.660Z,25.81
2022-08-25T03:05:01.925Z,25.81
2022-08-25T03:06:01.987Z,25.80
2022-08-25T03:07:02.147Z,25.78
2022-08-25T03:08:02.352Z,25.77
2022-08-25T03:09:02.487Z,25.76
2022-08-25T03:10:02.659Z,25.76
2022-08-25T03:11:02.820Z,25.77
2022-08-25T03:12:02.978Z,25.74
2022-08-25T03:13:03.146Z,25.74
2022-08-25T03:14:03.320Z,25.76
2022-08-25T03:15:03.489Z,25.69
2022-08-25T03:16:03.669Z,25.71
2022-08-25T03:17:03.889Z,25.69
2022-08-25T03:18:05.170Z,25.71
2022-08-25T03:19:04.224Z,25.69
2022-08-25T03:20:04.385Z,25.69
2022-08-25T03:21:04.565Z,25.71
2022-08-25T03:22:04.733Z,25.71
2022-08-25T03:23:04.896Z,25.68
2022-08-25T03:24:05.064Z,25.65
2022-08-25T03:25:05.240Z,25.68
2022-08-25T03:26:05.394Z,25.65
2022-08-25T03:27:05.590Z,25.63
2022-08-25T03:28:05.809Z,25.63
2022-08-25T03:29:05.953Z,25.63
2022-08-25T03:30:06.068Z,25.61
2022-08-25T03:31:06.276Z,25.62
2022-08-25T03:32:06.472Z,25.61
2022-08-25T03:33:06.598Z,25.61
2022-08-25T03:34:06.829Z,25.58
2022-08-25T03:35:06.948Z,25.58
2022-08-25T03:36:07.109Z,25.59
2022-08-25T03:37:07.270Z,25.59
2022-08-25T03:38:07.453Z,25.58
2022-08-25T03:39:07.603Z,25.55
2022-08-25T03:40:07.832Z,25.55
2022-08-25T03:41:08.953Z,25.58
2022-08-25T03:42:08.168Z,25.58
2022-08-25T03:43:08.317Z,25.55
2022-08-25T03:44:08.485Z,25.52
2022-08-25T03:45:08.653Z,25.55
2022-08-25T03:46:08.885Z,25.50
2022-08-25T03:47:08.972Z,25.52
2022-08-25T03:48:09.135Z,25.55
2022-08-25T03:49:09.323Z,25.46
2022-08-25T03:50:09.484Z,25.52
2022-08-25T03:51:09.643Z,25.49
2022-08-25T03:52:09.837Z,25.48
2022-08-25T03:53:10.005Z,25.46
2022-08-25T03:54:10.197Z,25.48
2022-08-25T03:55:10.358Z,25.46
2022-08-25T03:56:10.547Z,25.45
2022-08-25T03:57:10.707Z,25.45
2022-08-25T03:58:10.917Z,25.46
2022-08-25T03:59:11.078Z,25.43
2022-08-25T04:00:11.242Z,25.45
2022-08-25T04:01:11.432Z,25.43
2022-08-25T04:02:11.642Z,25.43
2022-08-25T04:03:11.730Z,25.42
2022-08-25T04:04:11.890Z,25.45
2022-08-25T04:05:12.050Z,25.42
2022-08-25T04:06:12.211Z,25.43
2022-08-25T04:07:12.375Z,25.40
2022-08-25T04:08:12.542Z,25.40
2022-08-25T04:09:12.701Z,25.40
2022-08-25T04:10:12.874Z,25.40
2022-08-25T04:11:13.027Z,25.38
2022-08-25T04:12:13.203Z,25.39
2022-08-25T04:13:13.388Z,25.39
2022-08-25T04:14:15.824Z,25.35
2022-08-25T04:15:13.734Z,25.38
2022-08-25T04:16:13.976Z,25.38
2022-08-25T04:17:14.082Z,25.35
2022-08-25T04:18:14.225Z,25.35
2022-08-25T04:19:14.405Z,25.39
2022-08-25T04:20:14.587Z,25.38
2022-08-25T04:21:14.775Z,25.33
2022-08-25T04:22:14.918Z,25.38
2022-08-25T04:23:15.095Z,25.33
2022-08-25T04:24:15.273Z,25.34
2022-08-25T04:25:15.443Z,25.35
2022-08-25T04:26:15.639Z,25.35
2022-08-25T04:27:15.780Z,25.33
2022-08-25T04:28:15.960Z,25.34
2022-08-25T04:29:16.132Z,25.35
2022-08-25T04:30:16.318Z,25.33
2022-08-25T04:31:16.541Z,25.34
2022-08-25T04:32:16.650Z,25.33
2022-08-25T04:33:16.831Z,25.35
2022-08-25T04:34:30.147Z,25.35
2022-08-25T04:35:18.162Z,25.34
2022-08-25T04:36:17.350Z,25.38
2022-08-25T04:37:17.505Z,25.33
2022-08-25T04:38:17.685Z,25.35
2022-08-25T04:39:17.853Z,25.34
2022-08-25T04:40:18.088Z,25.34
2022-08-25T04:41:18.219Z,25.31
2022-08-25T04:42:18.388Z,25.33
2022-08-25T04:43:18.565Z,25.31
2022-08-25T04:44:18.738Z,25.28
2022-08-25T04:45:18.915Z,25.31
2022-08-25T04:46:20.458Z,25.33
2022-08-25T04:47:19.287Z,25.31
2022-08-25T04:48:19.435Z,25.31
2022-08-25T04:49:19.617Z,25.30
2022-08-25T04:50:19.798Z,25.35
2022-08-25T04:51:20.017Z,25.33
2022-08-25T04:52:20.159Z,25.31
2022-08-25T04:53:20.344Z,25.34
2022-08-25T04:54:20.529Z,25.33
2022-08-25T04:55:20.708Z,25.33
2022-08-25T04:56:20.880Z,25.38
2022-08-25T04:57:21.044Z,25.35
2022-08-25T04:58:21.239Z,25.34
2022-08-25T04:59:21.381Z,25.33
2022-08-25T05:00:21.551Z,25.35
2022-08-25T05:01:21.782Z,25.38
2022-08-25T05:02:21.923Z,25.34
2022-08-25T05:03:22.083Z,25.35
2022-08-25T05:04:28.311Z,25.34
2022-08-25T05:05:23.432Z,25.39
2022-08-25T05:06:22.614Z,25.39
2022-08-25T05:07:22.763Z,25.40
2022-08-25T05:08:22.948Z,25.40
2022-08-25T05:09:23.115Z,25.43
2022-08-25T05:10:23.304Z,25.46
2022-08-25T05:11:23.662Z,25.43
2022-08-25T05:12:23.646Z,25.46
2022-08-25T05:13:23.806Z,25.46
2022-08-25T05:14:26.197Z,25.49
2022-08-25T05:15:24.148Z,25.49
2022-08-25T05:16:24.403Z,25.50
2022-08-25T05:17:24.498Z,25.53
2022-08-25T05:18:24.679Z,25.52
2022-08-25T05:19:24.849Z,25.55
2022-08-25T05:20:25.029Z,25.58
2022-08-25T05:21:25.219Z,25.61
2022-08-25T05:22:25.392Z,25.62
2022-08-25T05:23:25.560Z,25.61
2022-08-25T05:24:25.732Z,25.68
2022-08-25T05:25:25.911Z,25.62
2022-08-25T05:26:26.109Z,25.69
2022-08-25T05:27:26.272Z,25.68
2022-08-25T05:28:26.463Z,25.71
2022-08-25T05:29:26.652Z,25.71
2022-08-25T05:30:26.836Z,25.72
2022-08-25T05:31:27.132Z,25.71
2022-08-25T05:32:27.194Z,25.71
2022-08-25T05:33:27.385Z,25.71
2022-08-25T05:34:27.565Z,25.76
2022-08-25T05:35:27.768Z,25.74
2022-08-25T05:36:27.979Z,25.74
2022-08-25T05:37:28.118Z,25.78
2022-08-25T05:38:28.310Z,25.78
2022-08-25T05:39:28.456Z,25.80
2022-08-25T05:40:28.707Z,25.80
2022-08-25T05:41:28.860Z,25.81
2022-08-25T05:42:28.997Z,25.84
2022-08-25T05:43:29.186Z,25.86
2022-08-25T05:44:29.391Z,25.86
2022-08-25T05:45:29.584Z,25.88
2022-08-25T05:46:31.562Z,25.95
2022-08-25T05:47:29.903Z,25.90
2022-08-25T05:48:30.120Z,25.90
2022-08-25T05:49:30.280Z,25.96
2022-08-25T05:50:30.431Z,25.95
2022-08-25T05:51:30.680Z,25.98
2022-08-25T05:52:30.783Z,25.99
2022-08-25T05:53:31.120Z,26.01
2022-08-25T05:54:31.108Z,26.01
2022-08-25T05:55:31.294Z,26.01
2022-08-25T05:56:31.494Z,26.02
2022-08-25T05:57:31.644Z,26.05
2022-08-25T05:58:31.826Z,26.08
2022-08-25T05:59:32.020Z,26.06
2022-08-25T06:00:32.198Z,26.06
2022-08-25T06:01:32.423Z,26.09
2022-08-25T06:02:32.577Z,26.08
2022-08-25T06:03:32.824Z,26.11
2022-08-25T06:04:32.917Z,26.13
2022-08-25T06:05:33.118Z,26.14
2022-08-25T06:06:33.286Z,26.17
2022-08-25T06:07:33.459Z,26.20
2022-08-25T06:08:33.660Z,26.21
2022-08-25T06:09:33.839Z,26.20
2022-08-25T06:10:34.000Z,26.23
2022-08-25T06:11:34.188Z,26.21
2022-08-25T06:12:34.374Z,26.24
2022-08-25T06:13:34.525Z,26.27
2022-08-25T06:14:34.731Z,26.27
2022-08-25T06:15:34.904Z,26.27
2022-08-25T06:16:35.133Z,26.33
2022-08-25T06:17:35.249Z,26.32
2022-08-25T06:18:35.413Z,26.32
2022-08-25T06:19:35.574Z,26.35
2022-08-25T06:20:35.755Z,26.38
2022-08-25T06:21:35.942Z,26.38
2022-08-25T06:22:36.124Z,26.39
2022-08-25T06:23:36.333Z,26.42
2022-08-25T06:24:36.495Z,26.45
2022-08-25T06:25:36.676Z,26.46
2022-08-25T06:26:36.873Z,26.46
2022-08-25T06:27:37.052Z,26.48
2022-08-25T06:28:37.252Z,26.51
2022-08-25T06:29:37.914Z,26.51
2022-08-25T06:30:37.589Z,26.54
2022-08-25T06:31:37.862Z,26.57
2022-08-25T06:32:37.958Z,26.54
2022-08-25T06:33:38.149Z,26.58
2022-08-25T06:34:38.332Z,26.60
2022-08-25T06:35:38.511Z,26.65
2022-08-25T06:36:38.721Z,26.64
2022-08-25T06:37:38.870Z,26.67
2022-08-25T06:38:39.080Z,26.65
2022-08-25T06:39:39.231Z,26.70
2022-08-25T06:40:39.424Z,26.72
2022-08-25T06:41:39.574Z,26.73
2022-08-25T06:42:39.780Z,26.73
2022-08-25T06:43:43.674Z,26.77
2022-08-25T06:44:41.104Z,26.79
2022-08-25T06:45:40.273Z,26.82
2022-08-25T06:46:40.493Z,26.83
2022-08-25T06:47:40.662Z,26.82
2022-08-25T06:48:40.835Z,26.88
2022-08-25T06:49:40.994Z,26.88
2022-08-25T06:50:41.179Z,26.91
2022-08-25T06:51:41.366Z,26.91
2022-08-25T06:52:41.693Z,26.97
2022-08-25T06:53:41.736Z,26.98
2022-08-25T06:54:41.919Z,27.02
2022-08-25T06:55:42.097Z,27.03
2022-08-25T06:56:42.289Z,27.08
2022-08-25T06:57:42.491Z,27.08
2022-08-25T06:58:42.660Z,27.11
2022-08-25T06:59:42.839Z,27.11
2022-08-25T07:00:43.082Z,27.12
2022-08-25T07:01:43.337Z,27.18
2022-08-25T07:02:43.509Z,27.20
2022-08-25T07:03:43.571Z,27.21
2022-08-25T07:04:43.722Z,27.23
2022-08-25T07:05:44.224Z,27.26
2022-08-25T07:06:44.071Z,27.25
2022-08-25T07:07:44.383Z,27.30
2022-08-25T07:08:44.467Z,27.30
2022-08-25T07:09:44.623Z,27.33
2022-08-25T07:10:48.118Z,27.32
2022-08-25T07:11:44.985Z,27.35
2022-08-25T07:12:45.179Z,27.39
2022-08-25T07:13:45.353Z,27.39
2022-08-25T07:14:58.197Z,27.42
2022-08-25T07:15:46.743Z,27.41
2022-08-25T07:16:49.312Z,27.48
2022-08-25T07:17:46.049Z,27.48
2022-08-25T07:18:46.217Z,27.48
2022-08-25T07:19:46.408Z,27.49
2022-08-25T07:20:46.586Z,27.52
2022-08-25T07:21:46.778Z,27.52
2022-08-25T07:22:46.978Z,27.57
2022-08-25T07:23:47.139Z,27.60
2022-08-25T07:24:47.322Z,27.62
2022-08-25T07:25:47.509Z,27.62
2022-08-25T07:26:47.669Z,27.62
2022-08-25T07:27:47.841Z,27.63
2022-08-25T07:28:48.010Z,27.66
2022-08-25T07:29:48.196Z,27.69
2022-08-25T07:30:51.841Z,27.67
2022-08-25T07:31:48.542Z,27.73
2022-08-25T07:32:54.775Z,27.71
2022-08-25T07:33:49.857Z,27.74
2022-08-25T07:34:52.577Z,27.76
2022-08-25T07:35:49.211Z,27.79
2022-08-25T07:36:49.395Z,27.78
2022-08-25T07:37:49.968Z,27.84
2022-08-25T07:38:49.747Z,27.82
2022-08-25T07:39:49.967Z,27.84
2022-08-25T07:40:53.467Z,27.89
2022-08-25T07:41:51.938Z,27.89
2022-08-25T07:42:50.464Z,27.94
2022-08-25T07:43:50.620Z,27.94
2022-08-25T07:44:50.806Z,27.97
2022-08-25T07:45:51.004Z,27.99
2022-08-25T07:46:51.316Z,27.99
2022-08-25T07:47:51.648Z,28.01
2022-08-25T07:48:53.235Z,28.04
2022-08-25T07:49:51.821Z,28.06
2022-08-25T07:50:51.879Z,28.08
2022-08-25T07:52:04.361Z,28.08
2022-08-25T07:52:54.862Z,28.07
2022-08-25T07:53:52.409Z,28.13
2022-08-25T07:54:52.610Z,28.15
2022-08-25T07:55:53.764Z,28.15
2022-08-25T07:56:52.944Z,28.16
2022-08-25T07:57:56.057Z,28.21
2022-08-25T07:58:53.316Z,28.21
2022-08-25T07:59:53.512Z,28.19
2022-08-25T08:00:53.672Z,28.23
2022-08-25T08:01:53.882Z,28.26
2022-08-25T08:02:54.072Z,28.26
2022-08-25T08:03:54.264Z,28.32
2022-08-25T08:04:54.405Z,28.32
2022-08-25T08:05:54.584Z,28.36
2022-08-25T08:06:54.742Z,28.34
2022-08-25T08:07:54.925Z,28.40
2022-08-25T08:08:57.979Z,28.38
2022-08-25T08:10:13.641Z,28.42
2022-08-25T08:11:04.555Z,28.46
2022-08-25T08:11:56.657Z,28.48
2022-08-25T08:12:55.828Z,28.48
2022-08-25T08:13:56.015Z,28.49
2022-08-25T08:14:56.218Z,28.53
2022-08-25T08:15:56.406Z,28.51
2022-08-25T08:16:56.547Z,28.51
2022-08-25T08:17:56.755Z,28.56
2022-08-25T08:18:56.919Z,28.57
2022-08-25T08:19:57.103Z,28.59
2022-08-25T08:20:57.260Z,28.60
2022-08-25T08:21:57.559Z,28.61
2022-08-25T08:22:57.635Z,28.67
2022-08-25T08:23:59.010Z,28.67
2022-08-25T08:24:57.981Z,28.66
2022-08-25T08:25:58.154Z,28.72
2022-08-25T08:26:59.305Z,28.76
2022-08-25T08:27:58.514Z,28.76
2022-08-25T08:28:58.704Z,28.78
2022-08-25T08:29:58.903Z,28.78
2022-08-25T08:30:59.116Z,28.82
2022-08-25T08:31:59.244Z,28.79
2022-08-25T08:33:09.660Z,28.82
2022-08-25T08:34:00.626Z,28.85
2022-08-25T08:34:59.785Z,28.85
2022-08-25T08:35:59.966Z,28.91
2022-08-25T08:37:01.116Z,28.94
2022-08-25T08:38:00.301Z,28.96
2022-08-25T08:39:00.490Z,28.97
2022-08-25T08:40:00.727Z,28.98
2022-08-25T08:41:00.847Z,29.00
2022-08-25T08:42:12.115Z,28.97
2022-08-25T08:43:02.240Z,29.01
2022-08-25T08:44:01.450Z,29.01
2022-08-25T08:45:02.663Z,29.01
2022-08-25T08:46:01.754Z,29.01
2022-08-25T08:47:01.919Z,29.01
2022-08-25T08:48:02.144Z,29.05
2022-08-25T08:49:02.280Z,29.09
2022-08-25T08:50:02.484Z,29.12
2022-08-25T08:51:02.662Z,29.12
2022-08-25T08:52:03.821Z,29.12
2022-08-25T08:53:03.000Z,29.13
2022-08-25T08:54:03.180Z,29.15
2022-08-25T08:55:06.466Z,29.15
2022-08-25T08:56:03.514Z,29.18
2022-08-25T08:57:03.674Z,29.19
2022-08-25T08:58:04.025Z,29.19
2022-08-25T08:59:06.454Z,29.23
2022-08-25T09:00:04.207Z,29.27
2022-08-25T09:01:04.365Z,29.27
2022-08-25T09:02:04.580Z,29.25
2022-08-25T09:03:04.843Z,29.30
2022-08-25T09:04:04.948Z,29.32
2022-08-25T09:05:05.127Z,29.37
2022-08-25T09:06:06.784Z,29.37
2022-08-25T09:07:05.439Z,29.42
2022-08-25T09:08:05.816Z,29.42
2022-08-25T09:09:06.915Z,29.46
2022-08-25T09:10:05.989Z,29.52
2022-08-25T09:11:06.186Z,29.53
2022-08-25T09:12:06.329Z,29.56
2022-08-25T09:13:11.999Z,29.59
2022-08-25T09:14:07.689Z,29.67
2022-08-25T09:15:12.677Z,29.64
2022-08-25T09:16:08.129Z,29.69
2022-08-25T09:17:07.239Z,29.75
2022-08-25T09:18:08.376Z,29.75
2022-08-25T09:19:07.572Z,29.74
2022-08-25T09:20:19.008Z,29.79
2022-08-25T09:21:08.939Z,29.82
2022-08-25T09:22:35.496Z,29.74
2022-08-25T09:23:09.265Z,29.76
2022-08-25T09:24:08.445Z,29.72
2022-08-25T09:25:09.055Z,29.72
2022-08-25T09:26:08.795Z,29.69
2022-08-25T09:27:08.995Z,29.71
2022-08-25T09:28:09.166Z,29.69
2022-08-25T09:29:10.900Z,29.68
2022-08-25T09:30:10.531Z,29.69
2022-08-25T09:31:09.749Z,29.72
2022-08-25T09:32:09.891Z,29.74
2022-08-25T09:33:10.061Z,29.76
2022-08-25T09:34:10.223Z,29.78
2022-08-25T09:35:10.406Z,29.84
2022-08-25T09:36:10.574Z,29.79
2022-08-25T09:37:10.781Z,29.79
2022-08-25T09:38:10.909Z,29.78
2022-08-25T09:39:11.063Z,29.78
2022-08-25T09:40:11.325Z,29.75
2022-08-25T09:41:11.420Z,29.75
2022-08-25T09:42:11.603Z,29.75
2022-08-25T09:43:11.766Z,29.75
2022-08-25T09:44:11.927Z,29.78
2022-08-25T09:45:12.110Z,29.75
2022-08-25T09:46:12.348Z,29.79
2022-08-25T09:47:12.464Z,29.85
2022-08-25T09:48:12.654Z,29.88
2022-08-25T09:49:12.822Z,29.90
2022-08-25T09:50:12.996Z,29.92
2022-08-25T09:51:14.146Z,29.97
2022-08-25T09:52:13.363Z,29.98
2022-08-25T09:53:17.415Z,29.99
2022-08-25T09:54:14.699Z,30.05
2022-08-25T09:55:14.698Z,30.06
2022-08-25T09:56:14.046Z,30.05
2022-08-25T09:57:14.191Z,30.05
2022-08-25T09:58:14.367Z,30.06
2022-08-25T09:59:15.502Z,30.07
2022-08-25T10:00:14.718Z,30.06
2022-08-25T10:01:14.922Z,30.07
2022-08-25T10:02:15.094Z,30.07
2022-08-25T10:03:15.401Z,30.03
2022-08-25T10:04:20.263Z,30.03
2022-08-25T10:05:16.662Z,30.07
2022-08-25T10:06:15.780Z,30.07
2022-08-25T10:07:15.960Z,30.09
2022-08-25T10:08:16.259Z,30.16
2022-08-25T10:09:16.287Z,30.14
2022-08-25T10:10:16.483Z,30.14
2022-08-25T10:11:16.642Z,30.17
2022-08-25T10:12:16.838Z,30.19
2022-08-25T10:13:17.014Z,30.25
2022-08-25T10:14:18.218Z,30.25
2022-08-25T10:15:17.416Z,30.25
2022-08-25T10:16:20.289Z,30.28
2022-08-25T10:17:18.739Z,30.29
2022-08-25T10:18:17.898Z,30.29
2022-08-25T10:19:18.086Z,30.32
2022-08-25T10:20:18.239Z,30.34
2022-08-25T10:21:18.426Z,30.36
2022-08-25T10:22:18.607Z,30.39
2022-08-25T10:23:18.786Z,30.41
2022-08-25T10:24:18.983Z,30.40
2022-08-25T10:25:19.156Z,30.41
2022-08-25T10:26:19.318Z,30.40
2022-08-25T10:27:19.488Z,30.40
2022-08-25T10:28:19.655Z,30.36
2022-08-25T10:29:19.829Z,30.34
2022-08-25T10:30:19.985Z,30.39
2022-08-25T10:31:20.218Z,30.40
2022-08-25T10:32:20.350Z,30.43
2022-08-25T10:33:20.531Z,30.47
2022-08-25T10:34:20.695Z,30.46
2022-08-25T10:35:20.891Z,30.46
2022-08-25T10:36:21.362Z,30.46
2022-08-25T10:37:21.192Z,30.46
2022-08-25T10:38:21.617Z,30.41
2022-08-25T10:39:34.499Z,30.41
2022-08-25T10:40:22.761Z,30.40
2022-08-25T10:41:21.858Z,30.35
2022-08-25T10:42:25.795Z,30.40
2022-08-25T10:43:23.726Z,30.39
2022-08-25T10:44:22.355Z,30.36
2022-08-25T10:45:22.528Z,30.39
2022-08-25T10:46:22.754Z,30.34
2022-08-25T10:47:22.857Z,30.34
2022-08-25T10:48:23.025Z,30.28
2022-08-25T10:49:23.187Z,30.29
2022-08-25T10:50:23.368Z,30.28
2022-08-25T10:51:25.507Z,30.28
2022-08-25T10:52:23.701Z,30.28
2022-08-25T10:53:23.879Z,30.31
2022-08-25T10:54:24.060Z,30.39
2022-08-25T10:55:24.240Z,30.44
2022-08-25T10:56:24.406Z,30.50
2022-08-25T10:57:24.607Z,30.53
2022-08-25T10:58:24.750Z,30.56
2022-08-25T10:59:25.937Z,30.58
2022-08-25T11:00:31.656Z,30.56
2022-08-25T11:01:28.184Z,30.53
2022-08-25T11:02:25.439Z,30.50
2022-08-25T11:03:26.813Z,30.51
2022-08-25T11:04:25.793Z,30.58
2022-08-25T11:05:25.968Z,30.59
2022-08-25T11:06:26.114Z,30.59
2022-08-25T11:07:26.344Z,30.61
2022-08-25T11:08:26.454Z,30.62
2022-08-25T11:09:26.659Z,30.66
2022-08-25T11:10:26.798Z,30.71
2022-08-25T11:11:26.975Z,30.73
2022-08-25T11:12:27.169Z,30.83
2022-08-25T11:13:27.336Z,30.91
2022-08-25T11:14:30.375Z,30.95
2022-08-25T11:15:28.677Z,31.03
2022-08-25T11:16:27.887Z,31.07
2022-08-25T11:17:28.026Z,31.15
2022-08-25T11:18:28.220Z,31.24
2022-08-25T11:19:28.387Z,31.31
2022-08-25T11:20:28.569Z,31.37
2022-08-25T11:21:28.750Z,31.37
2022-08-25T11:22:28.920Z,31.41
2022-08-25T11:23:29.129Z,31.45
2022-08-25T11:24:29.291Z,31.49
2022-08-25T11:25:29.474Z,31.53
2022-08-25T11:26:31.889Z,31.60
2022-08-25T11:27:29.803Z,31.65
2022-08-25T11:28:29.993Z,31.63
2022-08-25T11:29:30.164Z,31.60
2022-08-25T11:30:30.374Z,31.55
2022-08-25T11:31:30.524Z,31.52
2022-08-25T11:32:30.686Z,31.52
2022-08-25T11:33:30.893Z,31.52
2022-08-25T11:34:31.043Z,31.57
2022-08-25T11:35:31.205Z,31.66
2022-08-25T11:36:31.367Z,31.81
2022-08-25T11:37:31.527Z,31.97
2022-08-25T11:38:31.725Z,32.16
2022-08-25T11:39:33.079Z,32.33
2022-08-25T11:40:32.125Z,32.42
2022-08-25T11:41:32.267Z,32.48
2022-08-25T11:42:32.428Z,32.53
2022-08-25T11:43:35.637Z,32.64
2022-08-25T11:44:32.819Z,32.69
2022-08-25T11:45:32.954Z,32.67
2022-08-25T11:46:33.131Z,32.65
2022-08-25T11:47:33.300Z,32.71
2022-08-25T11:48:33.471Z,32.71
2022-08-25T11:49:33.663Z,32.72
2022-08-25T11:50:35.082Z,32.71
2022-08-25T11:51:36.448Z,32.64
2022-08-25T11:52:34.756Z,32.56
2022-08-25T11:53:34.372Z,32.56
2022-08-25T11:54:34.563Z,32.56
2022-08-25T11:55:34.723Z,32.60
2022-08-25T11:56:34.916Z,32.56
2022-08-25T11:57:35.095Z,32.53
2022-08-25T11:58:35.286Z,32.52
2022-08-25T11:59:35.463Z,32.46
2022-08-25T12:00:35.636Z,32.50
2022-08-25T12:01:35.826Z,32.50
2022-08-25T12:02:35.965Z,32.52
2022-08-25T12:03:36.146Z,32.53
2022-08-25T12:04:44.450Z,32.52
2022-08-25T12:05:37.581Z,32.58
2022-08-25T12:06:36.680Z,32.58
2022-08-25T12:07:36.863Z,32.52
2022-08-25T12:08:37.029Z,32.50
2022-08-25T12:09:37.220Z,32.48
2022-08-25T12:10:37.416Z,32.43
2022-08-25T12:11:37.569Z,32.37
2022-08-25T12:12:37.761Z,32.37
2022-08-25T12:13:37.964Z,32.37
2022-08-25T12:14:38.106Z,32.37
2022-08-25T12:15:38.300Z,32.36
2022-08-25T12:16:38.477Z,32.33
2022-08-25T12:17:38.602Z,32.33
2022-08-25T12:18:38.797Z,32.37
2022-08-25T12:19:39.953Z,32.38
2022-08-25T12:20:39.139Z,32.36
2022-08-25T12:21:39.314Z,32.40
2022-08-25T12:22:39.483Z,32.40
2022-08-25T12:23:39.841Z,32.43
2022-08-25T12:24:40.829Z,32.42
2022-08-25T12:25:43.530Z,32.42
2022-08-25T12:26:40.152Z,32.45
2022-08-25T12:27:40.327Z,32.46
2022-08-25T12:28:40.496Z,32.46
2022-08-25T12:29:40.648Z,32.48
2022-08-25T12:30:40.829Z,32.49
2022-08-25T12:31:40.999Z,32.53
2022-08-25T12:32:41.170Z,32.49
2022-08-25T12:33:41.330Z,32.45
2022-08-25T12:34:41.511Z,32.45
2022-08-25T12:35:41.948Z,32.45
2022-08-25T12:36:41.880Z,32.45
2022-08-25T12:37:42.084Z,32.46
2022-08-25T12:38:43.645Z,32.49
2022-08-25T12:39:42.434Z,32.49
2022-08-25T12:40:42.605Z,32.49
2022-08-25T12:41:42.783Z,32.53
2022-08-25T12:42:42.974Z,32.53
2022-08-25T12:43:43.147Z,32.58
2022-08-25T12:44:43.315Z,32.56
2022-08-25T12:45:43.532Z,32.61
2022-08-25T12:46:43.676Z,32.63
2022-08-25T12:47:44.994Z,32.71
2022-08-25T12:48:44.031Z,32.73
2022-08-25T12:49:44.221Z,32.75
2022-08-25T12:50:44.384Z,32.75
2022-08-25T12:51:48.810Z,32.72
2022-08-25T12:52:44.760Z,32.69
2022-08-25T12:53:44.918Z,32.63
2022-08-25T12:54:47.761Z,32.61